バンダルスリブガワン の空港の天気 - METARとTAF

ブルネイ国際空港 ( WBSB / BWN ) - ブルネイ バンダルスリブガワン
飛行場実況気象(Metar)
観測時間04/25 14:30 BNT (04/25 06:30 UTC)
風向・風速南西 4m/s
視程8000m
天気現象弱い雨
少しの雲 雲底高度 460m
少しの雲 雲底高度 490m
全天の4割程度の雲 雲底高度 610m
全天の8割程度の雲 雲底高度 4570m
気温28℃
湿度89%
気圧1008hPa
METARWBSB 250630Z 22007KT 8000 -RA FEW015 FEW016CB SCT020 BKN150 28/26 Q1008 NOSIG
過去の天気等 Google飛行場航空写真 Wunderground天気予報

過去48時間のMETAR

飛行場予報(TAF)
発表時間: 4/25 12:50 BNT (4/25 04:50 UTC)
予報対象時間: 25日14時 BNT ~ 26日20時 BNT
風向・風速北西 5m/s
視程10km以上
少しの雲 雲底高度 490m
少しの積乱雲 雲底高度 520m
25日14時 BNT ~ 25日16時 BNT に一時的に
視程7,000m
天気現象弱いしゅう雨
全天の4割程度の雲 雲底高度 460m
25日19時 BNT ~ 25日21時 BNT に徐々に
風向・風速南南西 3m/s
少しの雲 雲底高度 430m
少しの積乱雲 雲底高度 460m
25日22時 BNT ~ 26日2時 BNT に 確率 40% で一時的に
視程6,000m
天気現象弱いしゅう雨
TAF WBSB 250450Z 2506/2612 32010KT 9999 FEW016 FEW017CB
TEMPO 2506/2508 7000 -SHRA SCT015
BECMG 2511/2513 20005KT FEW014 FEW015CB
PROB40 TEMPO 2514/2518 6000 -SHRA